createdAt,value
2023-04-19T00:01:50.653Z,1.88
2023-04-19T00:04:40.686Z,1.95
2023-04-19T00:07:30.626Z,2.05
2023-04-19T00:10:19.451Z,1.95
2023-04-19T00:13:08.517Z,1.77
2023-04-19T00:15:57.124Z,1.88
2023-04-19T00:18:46.775Z,1.60
2023-04-19T00:21:36.777Z,1.52
2023-04-19T00:24:25.710Z,1.85
2023-04-19T00:27:14.271Z,1.80
2023-04-19T00:30:03.318Z,2.17
2023-04-19T00:32:52.042Z,1.65
2023-04-19T00:35:41.959Z,1.48
2023-04-19T00:38:31.942Z,1.40
2023-04-19T00:41:20.586Z,1.65
2023-04-19T00:44:09.195Z,1.10
2023-04-19T00:46:58.839Z,1.27
2023-04-19T00:49:48.295Z,1.52
2023-04-19T00:52:37.333Z,1.58
2023-04-19T00:55:27.508Z,1.23
2023-04-19T00:58:16.462Z,1.10
2023-04-19T01:01:06.434Z,1.67
2023-04-19T01:03:55.419Z,1.27
2023-04-19T01:06:44.235Z,1.30
2023-04-19T01:09:32.893Z,1.20
2023-04-19T01:12:23.128Z,1.40
2023-04-19T01:15:12.453Z,1.40
2023-04-19T01:18:02.115Z,1.48
2023-04-19T01:20:50.882Z,1.27
2023-04-19T01:23:40.835Z,1.20
2023-04-19T01:26:29.542Z,1.38
2023-04-19T01:29:18.798Z,1.45
2023-04-19T01:32:07.955Z,1.15
2023-04-19T01:34:56.698Z,1.08
2023-04-19T01:37:45.320Z,0.90
2023-04-19T01:40:35.439Z,1.25
2023-04-19T01:43:24.132Z,1.33
2023-04-19T01:46:12.798Z,1.35
2023-04-19T01:49:01.410Z,1.55
2023-04-19T01:51:50.051Z,1.17
2023-04-19T01:54:38.741Z,1.30
2023-04-19T01:57:28.791Z,1.02
2023-04-19T02:00:18.450Z,0.95
2023-04-19T02:03:07.261Z,1.23
2023-04-19T02:05:55.945Z,1.25
2023-04-19T02:08:44.816Z,1.40
2023-04-19T02:11:33.393Z,1.40
2023-04-19T02:14:23.376Z,1.42
2023-04-19T02:17:12.285Z,1.15
2023-04-19T02:20:00.871Z,1.33
2023-04-19T02:22:49.542Z,1.35
2023-04-19T02:25:38.159Z,1.20
2023-04-19T02:28:26.895Z,1.50
2023-04-19T02:31:16.895Z,0.80
2023-04-19T02:34:05.567Z,1.15
2023-04-19T02:36:54.110Z,1.17
2023-04-19T02:39:42.886Z,0.95
2023-04-19T02:42:31.501Z,0.88
2023-04-19T02:45:20.168Z,0.93
2023-04-19T02:48:10.282Z,1.55
2023-04-19T02:50:59.052Z,1.20
2023-04-19T02:53:47.705Z,1.15
2023-04-19T02:56:36.274Z,1.00
2023-04-19T02:59:24.907Z,1.15
2023-04-19T03:02:13.526Z,1.10
2023-04-19T03:05:04.070Z,0.95
2023-04-19T03:07:52.740Z,1.20
2023-04-19T03:10:41.439Z,1.20
2023-04-19T03:13:30.077Z,1.27
2023-04-19T03:16:18.985Z,1.02
2023-04-19T03:19:07.782Z,1.00
2023-04-19T03:21:57.771Z,1.10
2023-04-19T03:24:46.542Z,0.98
2023-04-19T03:27:36.794Z,1.30
2023-04-19T03:30:25.499Z,1.30
2023-04-19T03:33:14.388Z,0.93
2023-04-19T03:36:03.326Z,0.88
2023-04-19T03:38:53.384Z,1.15
2023-04-19T03:41:42.213Z,1.13
2023-04-19T03:44:33.855Z,1.38
2023-04-19T03:47:22.444Z,1.02
2023-04-19T03:50:11.843Z,0.90
2023-04-19T03:53:00.519Z,0.98
2023-04-19T03:55:50.572Z,1.20
2023-04-19T03:58:41.003Z,0.98
2023-04-19T04:01:30.840Z,1.00
2023-04-19T04:04:19.816Z,1.48
2023-04-19T04:07:08.698Z,0.93
2023-04-19T04:09:57.307Z,1.13
2023-04-19T04:12:47.508Z,1.20
2023-04-19T04:15:36.134Z,1.10
2023-04-19T04:18:27.137Z,1.25
2023-04-19T04:21:15.815Z,1.10
2023-04-19T04:24:04.522Z,0.98
2023-04-19T04:26:53.279Z,1.33
2023-04-19T04:29:43.946Z,1.23
2023-04-19T04:32:36.256Z,1.80
2023-04-19T04:35:25.142Z,1.30
2023-04-19T04:38:23.973Z,1.58
2023-04-19T04:41:13.784Z,3.00
2023-04-19T04:44:12.511Z,4.78
2023-04-19T04:47:03.183Z,4.82
2023-04-19T04:49:52.864Z,5.60
2023-04-19T04:52:41.581Z,5.22
2023-04-19T04:55:30.345Z,4.00
2023-04-19T04:58:20.478Z,4.47
2023-04-19T05:01:09.280Z,3.80
2023-04-19T05:03:59.404Z,4.13
2023-04-19T05:06:48.082Z,4.10
2023-04-19T05:09:36.685Z,3.90
2023-04-19T05:12:25.365Z,3.55
2023-04-19T05:15:13.975Z,2.97
2023-04-19T05:18:02.624Z,3.50
2023-04-19T05:20:52.781Z,2.80
2023-04-19T05:23:44.226Z,2.75
2023-04-19T05:26:33.061Z,2.38
2023-04-19T05:29:21.665Z,2.70
2023-04-19T05:32:10.262Z,2.58
2023-04-19T05:34:59.019Z,2.85
2023-04-19T05:37:49.096Z,2.30
2023-04-19T05:40:37.828Z,2.45
2023-04-19T05:43:26.687Z,2.20
2023-04-19T05:46:15.420Z,1.95
2023-04-19T05:49:04.484Z,2.53
2023-04-19T05:51:54.308Z,1.75
2023-04-19T05:54:45.022Z,2.47
2023-04-19T05:57:33.738Z,2.08
2023-04-19T06:00:22.919Z,2.35
2023-04-19T06:03:12.117Z,2.38
2023-04-19T06:06:01.109Z,2.20
2023-04-19T06:08:49.847Z,2.65
2023-04-19T06:11:49.874Z,2.00
2023-04-19T06:14:39.676Z,2.05
2023-04-19T06:17:28.415Z,2.28
2023-04-19T06:20:17.403Z,2.25
2023-04-19T06:23:06.289Z,1.70
2023-04-19T06:25:54.958Z,1.80
2023-04-19T06:28:46.380Z,2.00
2023-04-19T06:31:35.234Z,1.83
2023-04-19T06:34:27.437Z,1.90
2023-04-19T06:37:16.125Z,2.42
2023-04-19T06:40:08.834Z,2.20
2023-04-19T06:42:57.678Z,2.10
2023-04-19T06:45:50.632Z,1.80
2023-04-19T06:48:40.132Z,1.95
2023-04-19T06:51:29.317Z,1.77
2023-04-19T06:54:18.474Z,1.65
2023-04-19T06:57:07.375Z,1.63
2023-04-19T06:59:58.097Z,1.40
2023-04-19T07:02:48.326Z,1.38
2023-04-19T07:05:38.090Z,1.80
2023-04-19T07:08:49.717Z,1.08
2023-04-19T07:11:39.580Z,1.85
2023-04-19T07:14:28.227Z,1.67
2023-04-19T07:17:18.242Z,1.30
2023-04-19T07:20:10.020Z,1.40
2023-04-19T07:22:58.718Z,1.20
2023-04-19T07:25:47.570Z,1.08
2023-04-19T07:28:36.484Z,1.05
2023-04-19T07:31:25.807Z,1.20
2023-04-19T07:34:14.777Z,1.27
2023-04-19T07:37:04.887Z,1.05
2023-04-19T07:39:53.531Z,1.00
2023-04-19T07:42:42.186Z,1.20
2023-04-19T07:45:31.935Z,1.38
2023-04-19T07:48:20.717Z,0.90
2023-04-19T07:51:12.834Z,1.55
2023-04-19T07:54:03.766Z,1.20
2023-04-19T07:56:52.409Z,1.00
2023-04-19T07:59:41.371Z,0.80
2023-04-19T08:02:30.175Z,1.00
2023-04-19T08:05:20.084Z,1.00
2023-04-19T08:08:08.921Z,1.00
2023-04-19T08:11:00.174Z,0.90
2023-04-19T08:14:02.670Z,0.80
2023-04-19T08:19:50.039Z,1.00
2023-04-19T08:22:39.439Z,0.90
2023-04-19T08:25:29.831Z,0.88
2023-04-19T08:28:20.138Z,1.13
2023-04-19T08:31:09.007Z,0.82
2023-04-19T08:33:58.519Z,0.60
2023-04-19T08:36:56.215Z,0.85
2023-04-19T08:39:49.376Z,0.88
2023-04-19T08:42:38.157Z,0.70
2023-04-19T08:45:29.664Z,0.98
2023-04-19T08:48:19.675Z,0.80
2023-04-19T08:51:09.487Z,0.80
2023-04-19T08:53:58.419Z,1.10
2023-04-19T08:56:47.115Z,0.70
2023-04-19T08:59:36.421Z,0.82
2023-04-19T09:02:26.572Z,0.60
2023-04-19T09:05:16.348Z,0.68
2023-04-19T09:08:24.990Z,0.70
2023-04-19T09:11:13.695Z,0.55
2023-04-19T09:14:10.070Z,0.80
2023-04-19T09:17:15.729Z,1.17
2023-04-19T09:20:07.286Z,0.50
2023-04-19T09:23:06.095Z,0.40
2023-04-19T09:26:19.433Z,0.50
2023-04-19T09:29:07.364Z,0.75
2023-04-19T09:32:00.261Z,0.80
2023-04-19T09:34:54.148Z,0.55
2023-04-19T09:40:35.998Z,1.00
2023-04-19T09:43:53.251Z,0.80
2023-04-19T09:46:36.645Z,0.93
2023-04-19T09:49:41.668Z,0.40
2023-04-19T09:52:35.851Z,0.45
2023-04-19T09:55:28.821Z,0.52
2023-04-19T09:58:20.282Z,0.55
2023-04-19T10:01:15.818Z,0.75
2023-04-19T10:04:23.851Z,0.52
2023-04-19T10:10:19.590Z,0.55
2023-04-19T10:16:18.218Z,0.50
2023-04-19T10:19:11.942Z,0.60
2023-04-19T10:22:01.047Z,0.57
2023-04-19T10:25:12.825Z,0.70
2023-04-19T10:28:01.493Z,0.80
2023-04-19T10:31:02.571Z,0.65
2023-04-19T10:33:52.552Z,0.55
2023-04-19T10:36:41.454Z,0.55
2023-04-19T10:39:44.219Z,0.30
2023-04-19T10:43:10.109Z,0.50
2023-04-19T10:46:03.724Z,0.75
2023-04-19T10:48:57.249Z,0.45
2023-04-19T10:51:52.724Z,0.55
2023-04-19T10:54:41.336Z,0.60
2023-04-19T10:57:30.676Z,0.57
2023-04-19T11:00:21.390Z,0.47
2023-04-19T11:03:54.616Z,0.55
2023-04-19T11:07:01.374Z,0.50
2023-04-19T11:09:52.469Z,0.40
2023-04-19T11:12:44.944Z,0.68
2023-04-19T11:15:33.540Z,0.60
2023-04-19T11:18:22.177Z,0.50
2023-04-19T11:21:16.244Z,0.50
2023-04-19T11:24:09.109Z,0.47
2023-04-19T11:26:58.806Z,0.57
2023-04-19T11:29:47.442Z,0.60
2023-04-19T11:32:36.530Z,0.40
2023-04-19T11:35:27.292Z,0.50
2023-04-19T11:38:17.275Z,0.50
2023-04-19T11:41:06.421Z,0.30
2023-04-19T11:43:55.274Z,0.30
2023-04-19T11:46:44.235Z,0.60
2023-04-19T11:49:34.147Z,0.40
2023-04-19T11:52:24.769Z,0.55
2023-04-19T11:55:21.788Z,0.30
2023-04-19T11:58:10.574Z,0.40
2023-04-19T12:01:04.127Z,0.30
2023-04-19T12:03:54.414Z,0.38
2023-04-19T12:06:43.553Z,0.90
2023-04-19T12:09:34.383Z,0.35
2023-04-19T12:12:36.491Z,0.60
2023-04-19T12:15:26.979Z,0.43
2023-04-19T12:18:16.917Z,0.55
2023-04-19T12:21:06.543Z,0.70
2023-04-19T12:23:56.760Z,0.50
2023-04-19T12:28:14.600Z,0.50
2023-04-19T12:30:07.097Z,0.60
2023-04-19T12:32:56.572Z,0.38
2023-04-19T12:35:45.919Z,0.40
2023-04-19T12:38:34.528Z,0.40
2023-04-19T12:41:23.133Z,0.60
2023-04-19T12:44:11.951Z,0.60
2023-04-19T12:47:02.179Z,0.52
2023-04-19T12:49:53.567Z,0.22
2023-04-19T12:52:42.317Z,0.50
2023-04-19T12:55:30.919Z,0.40
2023-04-19T12:58:21.211Z,0.35
2023-04-19T13:01:10.107Z,0.40
2023-04-19T13:04:00.379Z,0.50
2023-04-19T13:06:49.208Z,0.47
2023-04-19T13:09:37.842Z,0.40
2023-04-19T13:12:26.565Z,0.60
2023-04-19T13:15:15.471Z,0.40
2023-04-19T13:18:04.159Z,0.63
2023-04-19T13:20:54.972Z,0.30
2023-04-19T13:23:45.796Z,0.40
2023-04-19T13:26:35.095Z,0.73
2023-04-19T13:29:23.735Z,0.73
2023-04-19T13:32:13.310Z,0.80
2023-04-19T13:35:01.940Z,1.48
2023-04-19T13:37:52.069Z,1.05
2023-04-19T13:40:40.729Z,1.20
2023-04-19T13:43:29.332Z,1.30
2023-04-19T13:46:18.056Z,1.70
2023-04-19T13:49:06.787Z,1.35
2023-04-19T13:51:55.411Z,1.50
2023-04-19T13:54:45.424Z,1.52
2023-04-19T13:57:34.079Z,1.73
2023-04-19T14:00:23.276Z,1.75
2023-04-19T14:03:12.154Z,2.08
2023-04-19T14:06:00.782Z,1.80
2023-04-19T14:08:51.294Z,1.20
2023-04-19T14:11:41.458Z,1.60
2023-04-19T14:14:31.995Z,1.55
2023-04-19T14:17:21.169Z,1.33
2023-04-19T14:20:11.036Z,1.80
2023-04-19T14:23:00.297Z,2.08
2023-04-19T14:25:49.034Z,1.80
2023-04-19T14:28:39.081Z,2.03
2023-04-19T14:31:27.904Z,1.95
2023-04-19T14:34:16.520Z,2.03
2023-04-19T14:37:05.182Z,1.75
2023-04-19T14:39:54.266Z,1.92
2023-04-19T14:42:42.886Z,1.90
2023-04-19T14:45:32.934Z,6.45
2023-04-19T14:48:22.398Z,5.60
2023-04-19T14:51:11.185Z,3.97
2023-04-19T14:54:00.257Z,2.13
2023-04-19T14:56:49.072Z,6.05
2023-04-19T14:59:37.719Z,3.42
2023-04-19T15:02:28.326Z,3.00
2023-04-19T15:05:17.521Z,3.20
2023-04-19T15:08:12.459Z,2.40
2023-04-19T15:11:06.277Z,2.17
2023-04-19T15:13:54.882Z,2.28
2023-04-19T15:16:43.538Z,1.40
2023-04-19T15:19:33.844Z,1.58
2023-04-19T15:22:22.426Z,7.82
2023-04-19T15:25:11.924Z,3.22
2023-04-19T15:28:00.548Z,1.88
2023-04-19T15:30:58.384Z,2.50
2023-04-19T15:33:47.527Z,2.67
2023-04-19T15:36:37.597Z,2.20
2023-04-19T15:39:26.454Z,3.00
2023-04-19T15:42:15.288Z,2.85
2023-04-19T15:45:04.067Z,3.10
2023-04-19T15:47:52.808Z,2.25
2023-04-19T15:50:44.126Z,2.60
2023-04-19T15:53:34.244Z,1.58
2023-04-19T15:56:23.139Z,1.98
2023-04-19T15:59:11.778Z,2.08
2023-04-19T16:02:00.572Z,1.67
2023-04-19T16:04:49.598Z,1.73
2023-04-19T16:07:38.372Z,1.83
2023-04-19T16:10:28.464Z,1.98
2023-04-19T16:13:17.831Z,1.60
2023-04-19T16:16:06.934Z,1.42
2023-04-19T16:18:55.930Z,1.77
2023-04-19T16:21:44.527Z,1.73
2023-04-19T16:24:34.224Z,2.00
2023-04-19T16:27:24.244Z,1.58
2023-04-19T16:30:16.436Z,1.38
2023-04-19T16:33:05.201Z,1.50
2023-04-19T16:35:53.827Z,1.20
2023-04-19T16:38:42.371Z,1.48
2023-04-19T16:41:31.434Z,1.30
2023-04-19T16:44:21.453Z,1.40
2023-04-19T16:47:10.049Z,1.55
2023-04-19T16:49:59.208Z,0.80
2023-04-19T16:52:47.812Z,1.35
2023-04-19T16:55:36.430Z,1.10
2023-04-19T16:58:25.019Z,1.58
2023-04-19T17:01:15.382Z,1.40
2023-04-19T17:04:04.213Z,1.45
2023-04-19T17:06:52.885Z,1.65
2023-04-19T17:09:41.747Z,1.63
2023-04-19T17:12:30.401Z,1.45
2023-04-19T17:15:21.031Z,1.38
2023-04-19T17:18:11.106Z,1.10
2023-04-19T17:21:00.467Z,1.40
2023-04-19T17:23:49.127Z,1.05
2023-04-19T17:26:37.728Z,1.48
2023-04-19T17:29:26.508Z,1.17
2023-04-19T17:32:15.156Z,1.13
2023-04-19T17:35:05.335Z,1.35
2023-04-19T17:37:54.125Z,1.20
2023-04-19T17:40:42.727Z,0.90
2023-04-19T17:43:31.385Z,1.17
2023-04-19T17:46:20.949Z,1.13
2023-04-19T17:49:10.562Z,1.50
2023-04-19T17:52:00.605Z,1.17
2023-04-19T17:54:49.922Z,1.00
2023-04-19T17:57:38.650Z,0.90
2023-04-19T18:00:27.608Z,0.90
2023-04-19T18:03:26.802Z,0.80
2023-04-19T18:06:16.374Z,1.13
2023-04-19T18:09:07.597Z,0.98
2023-04-19T18:11:56.453Z,0.85
2023-04-19T18:14:45.042Z,1.33
2023-04-19T18:17:33.788Z,0.57
2023-04-19T18:20:22.763Z,0.95
2023-04-19T18:23:11.429Z,0.98
2023-04-19T18:26:04.469Z,0.98
2023-04-19T18:28:53.078Z,0.63
2023-04-19T18:31:41.849Z,1.20
2023-04-19T18:34:32.717Z,0.63
2023-04-19T18:37:21.418Z,0.50
2023-04-19T18:40:10.992Z,0.73
2023-04-19T18:43:01.046Z,0.93
2023-04-19T18:45:55.813Z,1.00
2023-04-19T18:48:44.507Z,0.50
2023-04-19T18:51:33.137Z,0.73
2023-04-19T18:54:21.759Z,0.65
2023-04-19T19:00:05.472Z,0.60
2023-04-19T19:02:54.455Z,0.55
2023-04-19T19:05:43.322Z,0.68
2023-04-19T19:08:32.253Z,0.73
2023-04-19T19:11:47.228Z,0.60
2023-04-19T19:14:29.886Z,0.55
2023-04-19T19:17:20.028Z,0.30
2023-04-19T19:20:10.605Z,0.47
2023-04-19T19:22:59.642Z,0.50
2023-04-19T19:25:51.365Z,0.40
2023-04-19T19:28:40.284Z,0.40
2023-04-19T19:31:28.920Z,0.63
2023-04-19T19:34:28.892Z,0.82
2023-04-19T19:37:19.013Z,0.35
2023-04-19T19:40:11.310Z,0.45
2023-04-19T19:43:00.129Z,0.38
2023-04-19T19:45:48.797Z,0.40
2023-04-19T19:48:41.967Z,0.45
2023-04-19T19:51:53.116Z,0.60
2023-04-19T19:54:41.297Z,0.43
2023-04-19T19:58:18.647Z,0.80
2023-04-19T20:00:46.155Z,0.30
2023-04-19T20:03:37.940Z,0.38
2023-04-19T20:07:21.487Z,0.30
2023-04-19T20:09:37.034Z,0.30
2023-04-19T20:12:25.695Z,0.50
2023-04-19T20:15:14.868Z,0.20
2023-04-19T20:18:03.714Z,0.85
2023-04-19T20:20:52.484Z,0.68
2023-04-19T20:23:41.300Z,0.30
2023-04-19T20:26:31.342Z,0.40
2023-04-19T20:29:20.037Z,0.40
2023-04-19T20:32:09.349Z,0.20
2023-04-19T20:34:58.016Z,0.40
2023-04-19T20:37:48.938Z,0.32
2023-04-19T20:40:37.645Z,0.50
2023-04-19T20:43:27.666Z,0.52
2023-04-19T20:46:16.768Z,0.40
2023-04-19T20:49:05.491Z,0.30
2023-04-19T20:51:54.372Z,0.28
2023-04-19T20:54:42.968Z,0.32
2023-04-19T20:57:31.575Z,0.40
2023-04-19T21:00:21.901Z,0.30
2023-04-19T21:03:10.647Z,0.40
2023-04-19T21:05:59.524Z,0.20
2023-04-19T21:08:48.881Z,0.43
2023-04-19T21:11:37.506Z,0.50
2023-04-19T21:14:26.122Z,0.25
2023-04-19T21:17:16.159Z,0.40
2023-04-19T21:20:11.828Z,0.10
2023-04-19T21:23:00.442Z,0.28
2023-04-19T21:25:49.067Z,0.40
2023-04-19T21:28:37.894Z,0.30
2023-04-19T21:31:27.170Z,0.30
2023-04-19T21:34:17.226Z,0.30
2023-04-19T21:37:06.184Z,0.38
2023-04-19T21:39:55.150Z,0.40
2023-04-19T21:42:43.685Z,0.60
2023-04-19T21:45:32.266Z,0.43
2023-04-19T21:48:21.024Z,0.20
2023-04-19T21:51:11.329Z,0.30
2023-04-19T21:53:59.935Z,0.30
2023-04-19T21:56:48.731Z,0.30
2023-04-19T21:59:37.779Z,0.38
2023-04-19T22:02:26.659Z,0.20
2023-04-19T22:05:16.702Z,0.20
2023-04-19T22:08:07.283Z,0.20
2023-04-19T22:10:57.505Z,0.25
2023-04-19T22:13:46.210Z,0.15
2023-04-19T22:16:35.161Z,0.13
2023-04-19T22:19:24.886Z,0.20
2023-04-19T22:22:17.544Z,0.20
2023-04-19T22:25:25.530Z,0.20
2023-04-19T22:28:14.207Z,0.30
2023-04-19T22:31:02.796Z,0.40
2023-04-19T22:33:51.656Z,0.10
2023-04-19T22:36:40.385Z,0.20
2023-04-19T22:39:29.067Z,0.32
2023-04-19T22:42:19.121Z,0.20
2023-04-19T22:45:09.198Z,0.28
2023-04-19T22:47:58.071Z,0.20
2023-04-19T22:50:47.143Z,0.20
2023-04-19T22:53:35.845Z,0.35
2023-04-19T22:56:24.531Z,0.15
2023-04-19T22:59:14.918Z,0.20
2023-04-19T23:02:04.070Z,0.10
2023-04-19T23:04:53.129Z,0.10
2023-04-19T23:07:42.971Z,0.20
2023-04-19T23:10:32.815Z,0.20
2023-04-19T23:13:21.467Z,0.20
2023-04-19T23:16:12.867Z,0.20
2023-04-19T23:19:01.748Z,0.10
2023-04-19T23:21:50.640Z,0.20
2023-04-19T23:24:39.254Z,0.20
2023-04-19T23:27:27.833Z,0.10
2023-04-19T23:30:16.810Z,0.20
2023-04-19T23:33:07.002Z,0.30
2023-04-19T23:35:55.755Z,0.10
2023-04-19T23:38:44.405Z,0.10
2023-04-19T23:41:33.012Z,0.10
2023-04-19T23:44:21.757Z,0.10
2023-04-19T23:47:10.452Z,0.00
2023-04-19T23:50:00.465Z,0.10
2023-04-19T23:52:49.104Z,0.05
2023-04-19T23:55:39.002Z,0.25
2023-04-19T23:58:27.636Z,0.00
